Time;durP1;ratioP1;P1;durP2;ratioP2;P2;SDS_P1;SDS_P2;PMS_P1;PMS_P2;Temp;Humidity;BMP_temperature;BMP_pressure;BME280_temperature;BME280_humidity;BME280_pressure;Samples;Min_cycle;Max_cycle;Signal;HPM_P1;HPM_P2
2024/03/02 00:02:45;;;;;;;54.05;22.92;;;;;;;;;;4940494;29;20039;-82
2024/03/02 00:05:25;;;;;;;46.03;21.48;;;;;;;;;;4970122;28;20525;-82
2024/03/02 00:07:59;;;;;;;44.53;20.40;;;;;;;;;;4936982;29;20082;-82
2024/03/02 00:10:41;;;;;;;48.78;21.90;;;;;;;;;;4954608;29;20104;-82
2024/03/02 00:13:24;;;;;;;54.08;22.65;;;;;;;;;;4936905;29;20043;-82
2024/03/02 00:16:40;;;;;;;47.90;20.85;;;;;;;;;;4957993;29;20668;-83
2024/03/02 00:19:15;;;;;;;44.55;21.98;;;;;;;;;;4939085;29;20028;-82
2024/03/02 00:21:49;;;;;;;47.00;21.55;;;;;;;;;;4953334;29;20103;-82
2024/03/02 00:24:36;;;;;;;46.53;21.95;;;;;;;;;;4954313;29;20039;-81
2024/03/02 00:34:06;;;;;;;43.00;20.15;;;;;;;;;;4973574;28;20050;-83
2024/03/02 00:36:53;;;;;;;43.47;21.17;;;;;;;;;;4956483;29;20039;-82
2024/03/02 00:39:21;;;;;;;45.33;21.70;;;;;;;;;;4922868;29;20103;-82
2024/03/02 00:42:05;;;;;;;38.78;19.92;;;;;;;;;;4957637;29;20051;-81
2024/03/02 00:44:51;;;;;;;41.50;19.90;;;;;;;;;;4955438;28;20051;-82
2024/03/02 00:47:33;;;;;;;51.85;22.38;;;;;;;;;;4976482;28;20037;-83
2024/03/02 00:50:09;;;;;;;39.28;19.95;;;;;;;;;;4968662;28;20031;-82
2024/03/02 00:52:52;;;;;;;36.80;19.30;;;;;;;;;;4963793;28;20023;-83
2024/03/02 00:55:21;;;;;;;43.08;19.58;;;;;;;;;;4938012;28;20047;-82
2024/03/02 00:58:01;;;;;;;45.13;21.40;;;;;;;;;;4959477;28;20382;-82
2024/03/02 01:00:33;;;;;;;46.15;19.20;;;;;;;;;;4930778;28;20039;-82
2024/03/02 01:03:01;;;;;;;41.20;20.58;;;;;;;;;;4937505;29;20074;-82
2024/03/02 01:05:31;;;;;;;42.45;20.75;;;;;;;;;;4963475;28;20038;-81
2024/03/02 01:08:11;;;;;;;38.83;18.70;;;;;;;;;;4947202;28;20035;-83
2024/03/02 01:10:53;;;;;;;41.72;19.80;;;;;;;;;;4944973;28;20022;-82
2024/03/02 01:13:26;;;;;;;38.20;18.67;;;;;;;;;;4952817;28;20069;-81
2024/03/02 01:15:58;;;;;;;40.20;18.67;;;;;;;;;;4934542;28;20030;-82
2024/03/02 01:18:31;;;;;;;40.08;19.60;;;;;;;;;;4963404;28;20050;-82
2024/03/02 01:21:03;;;;;;;37.05;17.90;;;;;;;;;;4940171;29;20446;-82
2024/03/02 01:23:43;;;;;;;38.83;17.40;;;;;;;;;;4956017;23;20127;-81
2024/03/02 01:26:28;;;;;;;38.15;18.40;;;;;;;;;;4949398;29;20039;-82
2024/03/02 01:29:05;;;;;;;37.40;17.08;;;;;;;;;;4927576;29;20040;-83
2024/03/02 01:31:39;;;;;;;38.53;18.67;;;;;;;;;;4923930;29;20043;-80
2024/03/02 01:34:24;;;;;;;36.95;17.48;;;;;;;;;;4933416;29;20028;-82
2024/03/02 01:37:10;;;;;;;38.13;17.58;;;;;;;;;;4922060;29;20517;-82
2024/03/02 01:40:26;;;;;;;36.67;18.02;;;;;;;;;;4942211;29;20507;-81
2024/03/02 01:43:07;;;;;;;39.00;16.88;;;;;;;;;;4928588;29;20115;-82
2024/03/02 01:45:48;;;;;;;33.15;16.65;;;;;;;;;;4921393;29;20117;-82
2024/03/02 01:48:26;;;;;;;35.08;16.88;;;;;;;;;;4928347;29;20032;-82
2024/03/02 01:51:02;;;;;;;33.95;17.27;;;;;;;;;;4931696;29;20023;-82
2024/03/02 01:53:39;;;;;;;30.17;15.88;;;;;;;;;;4942423;29;20103;-81
2024/03/02 01:56:09;;;;;;;31.60;15.50;;;;;;;;;;4913236;29;20035;-82
2024/03/02 01:59:06;;;;;;;34.97;16.48;;;;;;;;;;4923259;29;20040;-83
2024/03/02 02:01:53;;;;;;;30.95;16.35;;;;;;;;;;4909460;29;20123;-82
2024/03/02 02:04:30;;;;;;;35.10;16.77;;;;;;;;;;4895997;29;20047;-82
2024/03/02 02:07:26;;;;;;;34.38;15.57;;;;;;;;;;4946864;29;20031;-82
2024/03/02 02:10:07;;;;;;;32.25;16.25;;;;;;;;;;4929518;29;20070;-82
2024/03/02 02:12:36;;;;;;;31.60;15.13;;;;;;;;;;4893187;29;20032;-82
2024/03/02 02:15:23;;;;;;;31.45;15.48;;;;;;;;;;4917544;29;20043;-82
2024/03/02 02:18:08;;;;;;;33.33;16.60;;;;;;;;;;4933129;29;20035;-82
2024/03/02 02:21:11;;;;;;;30.52;14.63;;;;;;;;;;4945444;29;20372;-83
2024/03/02 02:24:10;;;;;;;31.95;15.13;;;;;;;;;;4931080;29;20030;-82
2024/03/02 02:26:58;;;;;;;26.42;13.57;;;;;;;;;;4930097;29;20360;-82
2024/03/02 02:29:51;;;;;;;30.08;15.15;;;;;;;;;;4927555;29;20281;-81
2024/03/02 02:32:28;;;;;;;29.30;14.77;;;;;;;;;;4913999;29;20036;-82
2024/03/02 02:36:03;;;;;;;27.70;14.15;;;;;;;;;;4934018;29;20396;-82
2024/03/02 02:39:13;;;;;;;29.08;13.80;;;;;;;;;;4929058;29;20036;-82
2024/03/02 02:42:21;;;;;;;30.75;13.95;;;;;;;;;;4933942;29;20038;-82
2024/03/02 02:45:06;;;;;;;27.10;13.20;;;;;;;;;;4938186;29;20097;-81
2024/03/02 02:47:59;;;;;;;34.22;14.75;;;;;;;;;;4916818;29;20032;-82
2024/03/02 02:50:49;;;;;;;30.02;14.52;;;;;;;;;;4908228;29;20028;-82
2024/03/02 02:53:22;;;;;;;30.35;13.85;;;;;;;;;;4913224;29;20070;-82
2024/03/02 02:55:52;;;;;;;32.20;14.73;;;;;;;;;;4941546;29;20031;-81
2024/03/02 02:58:32;;;;;;;30.50;13.70;;;;;;;;;;4918402;29;20047;-83
2024/03/02 03:01:30;;;;;;;31.00;13.65;;;;;;;;;;4918569;29;20093;-83
2024/03/02 03:04:05;;;;;;;32.70;14.07;;;;;;;;;;4919154;29;20099;-81
2024/03/02 03:06:53;;;;;;;;;;;;;;;;;;;;;
2024/03/02 03:09:40;;;;;;;27.42;14.20;;;;;;;;;;4927230;29;20035;-82
2024/03/02 03:12:21;;;;;;;29.27;13.90;;;;;;;;;;4911571;29;20031;-81
2024/03/02 03:15:00;;;;;;;26.02;13.68;;;;;;;;;;4919697;29;20032;-82
2024/03/02 03:17:29;;;;;;;32.10;13.52;;;;;;;;;;4894923;29;20122;-80
2024/03/02 03:20:05;;;;;;;26.30;13.30;;;;;;;;;;4891008;29;20055;-80
2024/03/02 03:22:42;;;;;;;27.02;14.25;;;;;;;;;;4925955;29;20035;-81
2024/03/02 03:25:36;;;;;;;33.20;15.05;;;;;;;;;;4944155;29;20035;-82
2024/03/02 03:28:11;;;;;;;29.17;13.00;;;;;;;;;;4893372;29;20036;-81
2024/03/02 03:31:00;;;;;;;29.70;14.32;;;;;;;;;;4899222;29;20039;-83
2024/03/02 03:33:42;;;;;;;25.38;13.45;;;;;;;;;;4944721;29;20119;-81
2024/03/02 03:39:37;;;;;;;;;;;;;;;;;;4914471;29;20031;-81
2024/03/02 03:42:15;;;;;;;26.88;13.20;;;;;;;;;;4929921;29;19934;-81
2024/03/02 03:44:49;;;;;;;29.60;13.77;;;;;;;;;;4931053;29;20129;-82
2024/03/02 03:47:21;;;;;;;25.02;13.23;;;;;;;;;;4902332;29;20044;-83
2024/03/02 03:49:56;;;;;;;29.50;13.20;;;;;;;;;;4899321;29;20032;-81
2024/03/02 03:52:31;;;;;;;28.17;13.38;;;;;;;;;;4902308;29;20479;-82
2024/03/02 03:55:11;;;;;;;26.55;12.98;;;;;;;;;;4905831;29;20039;-82
2024/03/02 03:57:46;;;;;;;25.02;13.23;;;;;;;;;;4894997;29;20068;-82
2024/03/02 04:00:21;;;;;;;29.75;13.10;;;;;;;;;;4907319;29;20040;-82
2024/03/02 04:02:52;;;;;;;25.77;13.00;;;;;;;;;;4899031;29;20119;-81
2024/03/02 04:05:18;;;;;;;;;;;;;;;;;;4897744;29;20035;-81
2024/03/02 04:07:54;;;;;;;29.50;14.00;;;;;;;;;;4915631;29;19978;-81
2024/03/02 04:10:25;;;;;;;32.88;15.07;;;;;;;;;;4908518;29;20384;-82
2024/03/02 04:13:00;;;;;;;34.60;13.82;;;;;;;;;;4908477;29;20035;-81
2024/03/02 04:15:38;;;;;;;32.20;14.63;;;;;;;;;;4917240;29;20060;-82
2024/03/02 04:18:12;;;;;;;38.63;16.38;;;;;;;;;;4933496;29;20054;-82
2024/03/02 04:21:24;;;;;;;30.42;14.38;;;;;;;;;;4915453;29;20031;-81
2024/03/02 04:24:02;;;;;;;33.17;14.93;;;;;;;;;;4930770;29;20035;-81
2024/03/02 04:26:37;;;;;;;31.52;14.05;;;;;;;;;;4935161;29;20051;-82
2024/03/02 04:29:05;;;;;;;;;;;;;;;;;;4940887;29;20039;-82
2024/03/02 04:31:42;;;;;;;30.65;14.27;;;;;;;;;;4947541;29;19907;-81
2024/03/02 04:34:23;;;;;;;32.70;14.00;;;;;;;;;;4931495;29;20040;-82
2024/03/02 04:37:00;;;;;;;29.58;13.95;;;;;;;;;;4931288;29;20112;-82
2024/03/02 04:39:31;;;;;;;32.42;14.73;;;;;;;;;;4923402;29;20027;-81
2024/03/02 04:42:02;;;;;;;30.60;14.93;;;;;;;;;;4908305;29;20043;-82
2024/03/02 04:44:30;;;;;;;;;;;;;;;;;;4906991;29;20044;-80
2024/03/02 04:47:04;;;;;;;30.50;13.65;;;;;;;;;;4952946;29;19914;-81
2024/03/02 04:49:36;;;;;;;35.97;14.85;;;;;;;;;;4941341;29;20031;-82
2024/03/02 04:52:09;;;;;;;33.63;15.95;;;;;;;;;;4907517;29;20302;-80
2024/03/02 04:57:36;;;;;;;28.17;14.27;;;;;;;;;;4936887;29;20036;-82
2024/03/02 05:00:08;;;;;;;32.58;14.35;;;;;;;;;;4919806;29;20059;-83
2024/03/02 05:02:43;;;;;;;34.33;14.95;;;;;;;;;;4905526;29;20032;-82
2024/03/02 05:05:45;;;;;;;28.52;13.93;;;;;;;;;;4912362;29;20039;-81
2024/03/02 05:08:23;;;;;;;29.90;14.18;;;;;;;;;;4932099;29;20058;-82
2024/03/02 05:10:53;;;;;;;30.58;14.73;;;;;;;;;;4920186;29;20034;-81
2024/03/02 05:13:57;;;;;;;29.48;14.25;;;;;;;;;;4934708;29;20052;-82
2024/03/02 05:16:31;;;;;;;34.72;14.95;;;;;;;;;;4948201;29;20103;-82
2024/03/02 05:19:09;;;;;;;34.70;14.27;;;;;;;;;;4916307;29;20076;-81
2024/03/02 05:21:51;;;;;;;28.00;13.82;;;;;;;;;;4931504;29;20039;-81
2024/03/02 05:24:29;;;;;;;32.90;15.13;;;;;;;;;;4918412;29;20043;-80
2024/03/02 05:27:01;;;;;;;31.08;15.35;;;;;;;;;;4911810;29;20055;-82
2024/03/02 05:29:44;;;;;;;29.05;14.18;;;;;;;;;;4948640;29;20100;-81
2024/03/02 05:32:59;;;;;;;31.42;14.02;;;;;;;;;;4947204;29;20046;-82
2024/03/02 05:35:34;;;;;;;28.33;14.43;;;;;;;;;;4947632;29;20063;-81
2024/03/02 05:38:38;;;;;;;31.77;14.82;;;;;;;;;;4936452;29;20055;-81
2024/03/02 05:41:36;;;;;;;35.08;15.02;;;;;;;;;;4918345;29;20036;-82
2024/03/02 05:44:15;;;;;;;29.27;14.55;;;;;;;;;;4932638;29;20039;-83
2024/03/02 05:46:59;;;;;;;28.30;14.02;;;;;;;;;;4946336;29;20032;-82
2024/03/02 05:49:33;;;;;;;30.48;14.15;;;;;;;;;;4916114;29;20040;-82
2024/03/02 05:52:12;;;;;;;31.77;14.68;;;;;;;;;;4929331;29;20044;-82
2024/03/02 05:54:49;;;;;;;31.30;13.43;;;;;;;;;;4907562;29;20053;-82
2024/03/02 05:57:40;;;;;;;30.60;13.70;;;;;;;;;;4912337;29;20111;-82
2024/03/02 06:00:17;;;;;;;28.38;14.38;;;;;;;;;;4930421;29;20047;-83
2024/03/02 06:02:47;;;;;;;27.77;14.95;;;;;;;;;;4920191;29;20035;-82
2024/03/02 06:05:19;;;;;;;30.80;15.02;;;;;;;;;;4921214;29;20377;-81
2024/03/02 06:07:51;;;;;;;35.47;15.57;;;;;;;;;;4912246;29;20027;-81
2024/03/02 06:10:23;;;;;;;29.80;14.00;;;;;;;;;;4910872;29;20091;-82
2024/03/02 06:12:54;;;;;;;34.58;15.27;;;;;;;;;;4893097;29;20032;-80
2024/03/02 06:15:28;;;;;;;29.98;15.20;;;;;;;;;;4927849;29;20058;-81
2024/03/02 06:18:21;;;;;;;33.95;15.70;;;;;;;;;;4922916;29;20053;-82
2024/03/02 06:20:51;;;;;;;31.70;15.30;;;;;;;;;;4900846;29;20048;-82
2024/03/02 06:23:21;;;;;;;34.55;15.43;;;;;;;;;;4913232;29;20031;-81
2024/03/02 06:25:57;;;;;;;34.13;15.93;;;;;;;;;;4913562;29;20039;-82
2024/03/02 06:28:32;;;;;;;34.83;15.55;;;;;;;;;;4913215;29;20132;-82
2024/03/02 06:31:27;;;;;;;33.65;15.73;;;;;;;;;;4913442;29;20051;-81
2024/03/02 06:34:03;;;;;;;31.92;16.52;;;;;;;;;;4913865;29;20046;-81
2024/03/02 06:36:33;;;;;;;35.85;16.80;;;;;;;;;;4913054;29;20039;-80
2024/03/02 06:39:08;;;;;;;36.50;16.73;;;;;;;;;;4930486;29;20103;-82
2024/03/02 06:41:42;;;;;;;38.00;16.50;;;;;;;;;;4922121;29;20051;-81
2024/03/02 06:44:23;;;;;;;35.28;17.10;;;;;;;;;;4929819;29;20036;-80
2024/03/02 06:47:09;;;;;;;35.50;16.33;;;;;;;;;;4915475;29;20068;-82
2024/03/02 06:50:09;;;;;;;33.78;17.15;;;;;;;;;;4912826;29;20040;-81
2024/03/02 06:52:42;;;;;;;40.05;16.10;;;;;;;;;;4914560;29;20036;-81
2024/03/02 06:55:17;;;;;;;35.22;17.17;;;;;;;;;;4888594;29;20039;-82
2024/03/02 06:58:05;;;;;;;35.15;17.23;;;;;;;;;;4929422;29;20036;-81
2024/03/02 07:00:38;;;;;;;34.50;16.52;;;;;;;;;;4913338;29;20120;-82
2024/03/02 07:03:13;;;;;;;37.17;16.42;;;;;;;;;;4905833;29;20035;-80
2024/03/02 07:05:57;;;;;;;40.58;18.67;;;;;;;;;;4910497;29;20115;-81
2024/03/02 07:08:38;;;;;;;34.45;15.50;;;;;;;;;;4929108;29;20036;-83
2024/03/02 07:11:53;;;;;;;32.78;15.15;;;;;;;;;;4930622;29;20035;-81
2024/03/02 07:17:45;;;;;;;30.10;14.85;;;;;;;;;;4945215;29;20067;-82
2024/03/02 07:20:50;;;;;;;30.23;14.80;;;;;;;;;;4917064;29;20047;-82
2024/03/02 07:23:42;;;;;;;34.70;16.23;;;;;;;;;;4947533;29;20042;-83
2024/03/02 07:26:44;;;;;;;36.50;15.73;;;;;;;;;;4925090;29;20040;-82
2024/03/02 07:29:38;;;;;;;34.80;15.98;;;;;;;;;;4914403;29;20028;-83
2024/03/02 07:32:37;;;;;;;32.30;15.25;;;;;;;;;;4947742;29;20036;-82
2024/03/02 07:35:41;;;;;;;39.92;16.50;;;;;;;;;;4938592;29;20035;-83
2024/03/02 07:38:44;;;;;;;33.75;14.10;;;;;;;;;;4899652;29;20452;-82
2024/03/02 07:41:25;;;;;;;33.38;15.18;;;;;;;;;;4929272;29;20052;-83
2024/03/02 07:44:06;;;;;;;33.38;14.32;;;;;;;;;;4925500;29;20036;-82
2024/03/02 07:46:49;;;;;;;30.95;15.13;;;;;;;;;;4944570;29;20051;-82
2024/03/02 07:49:27;;;;;;;28.67;14.90;;;;;;;;;;4926901;29;20035;-81
2024/03/02 07:52:07;;;;;;;32.15;15.32;;;;;;;;;;4920212;29;20028;-81
2024/03/02 07:54:50;;;;;;;28.63;14.52;;;;;;;;;;4929534;29;20059;-82
2024/03/02 07:57:46;;;;;;;32.90;14.98;;;;;;;;;;4942589;29;20091;-81
2024/03/02 08:00:25;;;;;;;33.75;15.25;;;;;;;;;;4914368;29;20036;-83
2024/03/02 08:03:12;;;;;;;33.55;15.38;;;;;;;;;;4936250;29;20035;-83
2024/03/02 08:06:08;;;;;;;31.05;15.30;;;;;;;;;;4951810;29;20597;-82
2024/03/02 08:08:40;;;;;;;35.63;15.60;;;;;;;;;;4925187;29;20076;-81
2024/03/02 08:11:25;;;;;;;29.77;13.68;;;;;;;;;;4927874;29;20048;-82
2024/03/02 08:14:08;;;;;;;30.33;14.75;;;;;;;;;;4925831;29;20105;-82
2024/03/02 08:17:02;;;;;;;28.25;14.00;;;;;;;;;;4945511;29;20043;-83
2024/03/02 08:20:33;;;;;;;29.92;14.05;;;;;;;;;;4957992;29;20048;-82
2024/03/02 08:27:25;;;;;;;34.53;15.98;;;;;;;;;;4949749;29;20076;-83
2024/03/02 08:30:17;;;;;;;31.55;15.50;;;;;;;;;;4944789;29;20039;-82
2024/03/02 08:32:56;;;;;;;33.85;16.13;;;;;;;;;;4932738;29;20032;-81
2024/03/02 08:35:43;;;;;;;27.67;14.13;;;;;;;;;;4957777;29;20027;-81
2024/03/02 08:38:44;;;;;;;34.70;16.70;;;;;;;;;;4927190;29;20040;-81
2024/03/02 08:41:27;;;;;;;;;;;;;;;;;;4925477;29;20067;-83
2024/03/02 08:44:37;;;;;;;30.58;14.63;;;;;;;;;;4943385;29;19922;-80
2024/03/02 08:47:21;;;;;;;34.30;15.52;;;;;;;;;;4932848;29;20040;-80
2024/03/02 08:49:53;;;;;;;34.78;15.68;;;;;;;;;;4916930;29;20044;-82
2024/03/02 08:52:24;;;;;;;28.52;13.98;;;;;;;;;;4912104;29;20092;-83
2024/03/02 08:54:53;;;;;;;33.10;16.80;;;;;;;;;;4901737;29;20032;-83
2024/03/02 08:57:27;;;;;;;33.42;16.00;;;;;;;;;;4929239;29;20028;-80
2024/03/02 08:59:54;;;;;;;33.65;17.42;;;;;;;;;;4893837;29;20043;-82
2024/03/02 09:02:23;;;;;;;35.28;16.60;;;;;;;;;;4885136;29;20032;-82
2024/03/02 09:04:54;;;;;;;36.70;16.50;;;;;;;;;;4944263;29;20107;-82
2024/03/02 09:07:21;;;;;;;35.55;16.27;;;;;;;;;;4902247;29;20157;-82
2024/03/02 09:10:21;;;;;;;34.70;16.38;;;;;;;;;;4940060;29;20039;-82
2024/03/02 09:13:30;;;;;;;36.88;16.50;;;;;;;;;;4957010;29;20043;-82
2024/03/02 09:16:11;;;;;;;35.95;16.27;;;;;;;;;;4933926;29;20043;-82
2024/03/02 09:19:51;;;;;;;;;;;;;;;;;;;;;
2024/03/02 09:23:17;;;;;;;33.25;14.82;;;;;;;;;;4961169;29;20038;-82
2024/03/02 09:33:49;;;;;;;31.20;14.55;;;;;;;;;;4937790;29;20012;-82
2024/03/02 09:37:09;;;;;;;28.58;14.68;;;;;;;;;;4926252;29;20041;-81
2024/03/02 09:39:59;;;;;;;32.42;15.55;;;;;;;;;;4916217;29;20039;-81
2024/03/02 09:42:40;;;;;;;31.30;14.80;;;;;;;;;;4906517;29;20036;-82
2024/03/02 09:45:10;;;;;;;27.60;14.45;;;;;;;;;;4914268;29;20028;-81
2024/03/02 09:47:38;;;;;;;28.35;14.65;;;;;;;;;;4905696;29;20044;-82
2024/03/02 09:50:05;;;;;;;26.83;14.02;;;;;;;;;;4902183;29;20026;-80
2024/03/02 10:02:43;;;;;;;31.20;13.70;;;;;;;;;;4944482;29;20057;-82
2024/03/02 10:06:08;;;;;;;27.05;12.25;;;;;;;;;;4954838;29;20036;-83
2024/03/02 10:09:52;;;;;;;22.70;11.90;;;;;;;;;;4954052;28;20044;-83
2024/03/02 10:13:07;;;;;;;26.23;12.68;;;;;;;;;;4934691;29;20032;-82
2024/03/02 10:16:34;;;;;;;;;;;;;;;;;;;;;
2024/03/02 10:20:29;;;;;;;27.88;12.25;;;;;;;;;;4892596;29;20062;-82
2024/03/02 10:23:38;;;;;;;23.52;11.52;;;;;;;;;;4867145;29;20072;-84
2024/03/02 10:26:31;;;;;;;26.33;12.30;;;;;;;;;;4865794;29;20052;-82
2024/03/02 10:29:55;;;;;;;22.33;11.80;;;;;;;;;;4820377;29;20023;-82
2024/03/02 10:33:08;;;;;;;19.27;9.88;;;;;;;;;;4793483;29;20092;-82
2024/03/02 10:35:37;;;;;;;22.23;10.15;;;;;;;;;;4760151;29;20516;-81
2024/03/02 10:38:17;;;;;;;21.60;10.73;;;;;;;;;;4773848;30;20047;-83
2024/03/02 10:40:51;;;;;;;21.40;9.52;;;;;;;;;;4774760;29;20150;-82
2024/03/02 10:43:22;;;;;;;23.73;10.93;;;;;;;;;;4766166;29;20039;-80
2024/03/02 10:46:01;;;;;;;19.63;9.10;;;;;;;;;;4794216;29;20212;-83
2024/03/02 10:49:14;;;;;;;20.00;9.77;;;;;;;;;;4791234;29;20043;-82
2024/03/02 10:51:47;;;;;;;20.48;9.98;;;;;;;;;;4787726;30;20081;-82
2024/03/02 10:54:26;;;;;;;19.50;9.10;;;;;;;;;;4770523;30;20040;-81
2024/03/02 10:57:00;;;;;;;16.98;9.18;;;;;;;;;;4743955;30;20500;-82
2024/03/02 10:59:33;;;;;;;19.35;8.65;;;;;;;;;;4774858;29;20042;-82
2024/03/02 11:02:08;;;;;;;16.45;8.32;;;;;;;;;;4816454;29;20569;-81
2024/03/02 11:04:44;;;;;;;14.45;7.55;;;;;;;;;;4850321;29;20042;-83
2024/03/02 11:07:16;;;;;;;11.57;6.80;;;;;;;;;;4831729;29;20041;-81
2024/03/02 11:09:58;;;;;;;16.35;7.88;;;;;;;;;;4840826;29;20117;-83
2024/03/02 11:12:39;;;;;;;15.27;8.05;;;;;;;;;;4827822;29;20033;-83
2024/03/02 11:15:10;;;;;;;14.02;7.00;;;;;;;;;;4834462;29;20041;-82
2024/03/02 11:17:41;;;;;;;15.40;8.05;;;;;;;;;;4881006;29;20055;-83
2024/03/02 11:20:09;;;;;;;16.35;8.07;;;;;;;;;;4884564;29;20053;-82
2024/03/02 11:22:38;;;;;;;14.23;8.15;;;;;;;;;;4869322;29;20037;-82
2024/03/02 11:25:04;;;;;;;13.18;7.03;;;;;;;;;;4872357;29;20044;-81
2024/03/02 11:27:51;;;;;;;18.23;8.70;;;;;;;;;;4875535;29;20063;-81
2024/03/02 11:30:34;;;;;;;16.05;7.65;;;;;;;;;;4857307;29;20045;-81
2024/03/02 11:33:12;;;;;;;14.85;8.10;;;;;;;;;;4873969;29;20020;-82
2024/03/02 11:35:54;;;;;;;20.35;9.52;;;;;;;;;;4876112;29;20045;-83
2024/03/02 11:38:27;;;;;;;23.60;8.50;;;;;;;;;;4892475;29;20141;-83
2024/03/02 11:41:00;;;;;;;17.25;8.13;;;;;;;;;;4877911;29;20054;-82
2024/03/02 11:43:43;;;;;;;16.17;8.40;;;;;;;;;;4913977;29;20059;-82
2024/03/02 11:46:27;;;;;;;14.50;7.20;;;;;;;;;;4882436;29;20100;-82
2024/03/02 11:48:56;;;;;;;12.70;7.72;;;;;;;;;;4864637;29;20029;-82
2024/03/02 11:51:24;;;;;;;14.30;7.85;;;;;;;;;;4873864;29;20033;-84
2024/03/02 11:53:54;;;;;;;16.63;8.50;;;;;;;;;;4892209;29;20071;-83
2024/03/02 11:56:27;;;;;;;17.13;7.93;;;;;;;;;;4876707;29;20075;-83
2024/03/02 11:58:55;;;;;;;13.43;6.53;;;;;;;;;;4890327;29;20135;-83
2024/03/02 12:01:39;;;;;;;15.75;7.35;;;;;;;;;;4860195;29;20035;-81
2024/03/02 12:04:14;;;;;;;13.93;7.10;;;;;;;;;;4886775;29;20052;-82
2024/03/02 12:06:47;;;;;;;14.18;6.53;;;;;;;;;;4890889;29;20179;-81
2024/03/02 12:09:26;;;;;;;11.93;6.82;;;;;;;;;;4874684;29;20497;-82
2024/03/02 12:12:06;;;;;;;15.55;7.47;;;;;;;;;;4873689;29;20065;-83
2024/03/02 12:14:55;;;;;;;16.27;8.65;;;;;;;;;;4889571;29;20528;-83
2024/03/02 12:17:25;;;;;;;14.07;7.30;;;;;;;;;;4872716;29;20033;-82
2024/03/02 12:19:57;;;;;;;13.77;7.38;;;;;;;;;;4873022;29;20424;-83
2024/03/02 12:22:29;;;;;;;14.57;7.28;;;;;;;;;;4858549;29;20033;-82
2024/03/02 12:24:57;;;;;;;16.20;7.68;;;;;;;;;;4858920;29;20047;-84
2024/03/02 12:27:24;;;;;;;14.60;7.63;;;;;;;;;;4858833;29;20087;-84
2024/03/02 12:30:14;;;;;;;13.80;6.90;;;;;;;;;;4874720;29;20029;-84
2024/03/02 12:32:42;;;;;;;11.80;6.75;;;;;;;;;;4872109;29;20079;-84
2024/03/02 12:35:31;;;;;;;11.82;6.20;;;;;;;;;;4902236;29;20052;-83
2024/03/02 12:38:11;;;;;;;14.63;7.05;;;;;;;;;;4874463;29;20045;-83
2024/03/02 12:40:46;;;;;;;10.10;6.00;;;;;;;;;;4876747;29;20044;-82
2024/03/02 12:43:34;;;;;;;12.35;6.55;;;;;;;;;;4891801;29;20059;-82
2024/03/02 12:46:37;;;;;;;12.93;6.88;;;;;;;;;;4857475;29;20047;-83
2024/03/02 12:49:22;;;;;;;;;;;;;;;;;;;;;
2024/03/02 12:52:36;;;;;;;11.88;5.93;;;;;;;;;;4895573;29;20041;-84
2024/03/02 12:55:27;;;;;;;10.90;5.47;;;;;;;;;;4878310;29;20037;-84
2024/03/02 12:57:59;;;;;;;8.45;5.15;;;;;;;;;;4851753;29;20465;-84
2024/03/02 13:00:51;;;;;;;9.35;4.80;;;;;;;;;;4893098;29;20707;-84
2024/03/02 13:03:23;;;;;;;8.95;4.93;;;;;;;;;;4880011;29;20052;-83
2024/03/02 13:05:53;;;;;;;10.25;5.25;;;;;;;;;;4879379;29;20444;-84
2024/03/02 13:08:30;;;;;;;;;;;;;;;;;;4881223;29;20165;-84
2024/03/02 13:11:29;;;;;;;9.85;5.72;;;;;;;;;;4882224;29;19912;-84
2024/03/02 13:14:17;;;;;;;11.15;5.40;;;;;;;;;;4899615;29;20036;-84
2024/03/02 13:16:57;;;;;;;10.27;5.50;;;;;;;;;;4901188;29;20033;-84
2024/03/02 13:19:46;;;;;;;9.07;5.55;;;;;;;;;;4896790;29;20068;-84
2024/03/02 13:22:14;;;;;;;11.83;5.87;;;;;;;;;;4878012;29;20048;-82
2024/03/02 13:24:46;;;;;;;13.10;6.30;;;;;;;;;;4883151;29;20048;-82
2024/03/02 13:27:20;;;;;;;10.88;5.85;;;;;;;;;;4895424;29;20041;-83
2024/03/02 13:29:48;;;;;;;10.18;5.70;;;;;;;;;;4879675;29;20032;-84
2024/03/02 13:32:26;;;;;;;9.05;5.70;;;;;;;;;;4895842;29;20047;-85
2024/03/02 13:35:02;;;;;;;10.48;5.70;;;;;;;;;;4863507;29;20044;-83
2024/03/02 13:38:12;;;;;;;13.02;6.88;;;;;;;;;;4897781;29;20036;-84
2024/03/02 13:40:41;;;;;;;10.85;5.82;;;;;;;;;;4876172;29;20097;-84
2024/03/02 13:43:13;;;;;;;9.23;5.28;;;;;;;;;;4887353;29;20029;-82
2024/03/02 13:45:42;;;;;;;9.25;5.32;;;;;;;;;;4891775;29;20046;-82
2024/03/02 13:48:11;;;;;;;11.10;6.45;;;;;;;;;;4893854;29;20088;-83
2024/03/02 13:50:39;;;;;;;10.43;5.93;;;;;;;;;;4880007;29;20075;-84
2024/03/02 13:53:22;;;;;;;10.48;6.57;;;;;;;;;;4894768;29;20050;-84
2024/03/02 13:56:01;;;;;;;11.00;5.93;;;;;;;;;;4930261;29;20036;-84
2024/03/02 13:58:34;;;;;;;8.48;5.30;;;;;;;;;;4945012;29;20031;-83
2024/03/02 14:01:04;;;;;;;;;;;;;;;;;;4917568;29;20031;-83
2024/03/02 14:03:35;;;;;;;9.25;4.97;;;;;;;;;;4915515;29;19956;-85
2024/03/02 14:06:10;;;;;;;9.02;5.50;;;;;;;;;;4916421;29;20032;-84
2024/03/02 14:08:55;;;;;;;9.55;5.45;;;;;;;;;;4930760;29;20043;-84
2024/03/02 14:11:38;;;;;;;12.70;5.80;;;;;;;;;;4915817;29;20186;-85
2024/03/02 14:14:38;;;;;;;8.13;5.07;;;;;;;;;;4899362;29;20024;-85
2024/03/02 14:18:06;;;;;;;8.43;5.03;;;;;;;;;;4916439;29;20118;-85
2024/03/02 14:21:07;;;;;;;9.10;4.75;;;;;;;;;;4945628;29;20039;-83
2024/03/02 14:24:29;;;;;;;;;;;;;;;;;;;;;
2024/03/02 14:27:06;;;;;;;7.35;4.88;;;;;;;;;;4930606;28;20039;-83
2024/03/02 14:30:05;;;;;;;283.38;33.45;;;;;;;;;;4954644;28;20517;-83
2024/03/02 14:33:41;;;;;;;11.05;4.57;;;;;;;;;;4986509;28;20031;-83
2024/03/02 14:36:31;;;;;;;6.93;4.38;;;;;;;;;;4938720;28;20094;-82
2024/03/02 14:39:12;;;;;;;11.05;4.80;;;;;;;;;;4951232;28;20038;-83
2024/03/02 14:41:54;;;;;;;7.75;4.05;;;;;;;;;;4950781;28;20031;-84
2024/03/02 14:44:37;;;;;;;7.65;4.35;;;;;;;;;;4954081;28;20031;-83
2024/03/02 14:47:17;;;;;;;7.65;3.78;;;;;;;;;;4970868;28;20053;-83
2024/03/02 14:49:58;;;;;;;8.18;4.65;;;;;;;;;;4982354;28;20114;-83
2024/03/02 14:52:28;;;;;;;7.05;4.45;;;;;;;;;;4963445;28;20305;-83
2024/03/02 14:55:07;;;;;;;10.02;4.03;;;;;;;;;;4953058;28;20031;-83
2024/03/02 14:57:48;;;;;;;6.72;3.58;;;;;;;;;;4952981;28;20080;-83
2024/03/02 15:00:34;;;;;;;6.20;3.70;;;;;;;;;;4954596;28;20117;-82
2024/03/02 15:03:11;;;;;;;7.78;3.60;;;;;;;;;;4971512;28;20038;-83
2024/03/02 15:05:51;;;;;;;7.40;3.80;;;;;;;;;;4972127;28;20047;-84
2024/03/02 15:08:32;;;;;;;6.68;3.88;;;;;;;;;;4971931;28;20034;-84
2024/03/02 15:11:05;;;;;;;10.27;3.80;;;;;;;;;;4987504;28;20375;-84
2024/03/02 15:14:18;;;;;;;5.47;3.20;;;;;;;;;;5003841;28;20057;-83
2024/03/02 15:17:04;;;;;;;7.93;3.70;;;;;;;;;;4971554;28;20112;-83
2024/03/02 15:19:35;;;;;;;8.18;3.80;;;;;;;;;;4967102;28;20060;-83
2024/03/02 15:22:09;;;;;;;9.95;3.78;;;;;;;;;;4939845;29;20121;-83
2024/03/02 15:24:50;;;;;;;7.40;4.00;;;;;;;;;;4915787;29;20039;-83
2024/03/02 15:27:22;;;;;;;9.63;4.35;;;;;;;;;;4870117;29;20041;-83
2024/03/02 15:29:57;;;;;;;6.82;3.83;;;;;;;;;;4881439;29;20033;-83
2024/03/02 15:32:52;;;;;;;7.07;4.10;;;;;;;;;;4886421;29;20060;-84
2024/03/02 15:35:49;;;;;;;7.28;3.83;;;;;;;;;;4887493;29;20496;-83
2024/03/02 15:38:44;;;;;;;6.78;3.78;;;;;;;;;;4887572;29;20033;-82
2024/03/02 15:41:25;;;;;;;14.85;4.95;;;;;;;;;;4872329;29;20036;-84
2024/03/02 15:44:05;;;;;;;12.07;5.60;;;;;;;;;;4873909;29;20056;-84
2024/03/02 15:46:48;;;;;;;11.27;5.50;;;;;;;;;;4897103;29;20227;-82
2024/03/02 15:49:23;;;;;;;9.43;4.30;;;;;;;;;;4901252;29;20108;-82
2024/03/02 15:52:06;;;;;;;11.98;6.57;;;;;;;;;;4901351;29;20136;-81
2024/03/02 15:54:59;;;;;;;12.27;5.88;;;;;;;;;;4903272;29;20041;-81
2024/03/02 15:58:05;;;;;;;13.30;6.75;;;;;;;;;;4813980;29;20138;-80
2024/03/02 16:00:42;;;;;;;13.95;6.80;;;;;;;;;;4791768;29;20058;-81
2024/03/02 16:03:26;;;;;;;13.13;5.70;;;;;;;;;;4799202;29;20392;-80
2024/03/02 16:06:09;;;;;;;8.43;4.07;;;;;;;;;;4787652;29;20580;-80
2024/03/02 16:08:41;;;;;;;11.63;5.75;;;;;;;;;;4791120;30;20519;-80
2024/03/02 16:11:19;;;;;;;10.73;4.72;;;;;;;;;;4796977;29;20423;-80
2024/03/02 16:13:53;;;;;;;10.82;4.72;;;;;;;;;;4815776;29;20057;-81
2024/03/02 16:16:23;;;;;;;10.35;4.95;;;;;;;;;;4795082;29;20040;-81
2024/03/02 16:18:51;;;;;;;10.85;5.10;;;;;;;;;;4843687;29;20398;-81
2024/03/02 16:21:25;;;;;;;12.57;5.45;;;;;;;;;;4833694;29;20078;-82
2024/03/02 16:24:02;;;;;;;9.55;4.82;;;;;;;;;;4817026;29;20042;-82
2024/03/02 16:26:36;;;;;;;11.15;4.90;;;;;;;;;;4833422;29;20042;-81
2024/03/02 16:29:11;;;;;;;10.30;6.05;;;;;;;;;;4819634;29;20041;-83
2024/03/02 16:31:42;;;;;;;13.48;6.20;;;;;;;;;;4841220;29;20101;-81
2024/03/02 16:34:15;;;;;;;13.38;6.53;;;;;;;;;;4849639;29;20044;-82
2024/03/02 16:36:43;;;;;;;14.70;6.28;;;;;;;;;;4889404;29;20056;-82
2024/03/02 16:39:11;;;;;;;14.80;6.75;;;;;;;;;;4871864;29;20120;-80
2024/03/02 16:41:46;;;;;;;11.43;6.40;;;;;;;;;;4870251;29;20033;-82